sensor_id;sensor_type;location;lat;lon;timestamp;pressure;altitude;pressure_sealevel;temperature;humidity
69245;BME280;56357;52.304;4.870;2024-01-25T00:01:38;102961.41;;;18.12;53.58
69245;BME280;56357;52.304;4.870;2024-01-25T00:04:04;102968.28;;;18.16;53.58
69245;BME280;56357;52.304;4.870;2024-01-25T00:06:30;102969.66;;;18.07;53.29
69245;BME280;56357;52.304;4.870;2024-01-25T00:08:57;102971.97;;;18.10;53.48
69245;BME280;56357;52.304;4.870;2024-01-25T00:11:24;102972.47;;;18.07;53.24
69245;BME280;56357;52.304;4.870;2024-01-25T00:13:50;102970.56;;;18.01;52.89
69245;BME280;56357;52.304;4.870;2024-01-25T00:16:16;102958.66;;;18.06;54.04
69245;BME280;56357;52.304;4.870;2024-01-25T00:18:43;102959.16;;;17.96;53.53
69245;BME280;56357;52.304;4.870;2024-01-25T00:21:09;102958.97;;;17.98;53.28
69245;BME280;56357;52.304;4.870;2024-01-25T00:23:35;102967.28;;;18.04;53.26
69245;BME280;56357;52.304;4.870;2024-01-25T00:26:02;102967.13;;;17.99;52.94
69245;BME280;56357;52.304;4.870;2024-01-25T00:28:28;102973.81;;;17.98;53.67
69245;BME280;56357;52.304;4.870;2024-01-25T00:30:55;102969.97;;;17.93;52.98
69245;BME280;56357;52.304;4.870;2024-01-25T00:33:21;102968.84;;;18.00;53.61
69245;BME280;56357;52.304;4.870;2024-01-25T00:35:48;102977.09;;;17.95;53.05
69245;BME280;56357;52.304;4.870;2024-01-25T00:38:14;102973.41;;;17.95;52.89
69245;BME280;56357;52.304;4.870;2024-01-25T00:40:41;102966.94;;;17.94;52.98
69245;BME280;56357;52.304;4.870;2024-01-25T00:43:08;102971.44;;;18.02;53.24
69245;BME280;56357;52.304;4.870;2024-01-25T00:45:34;102977.25;;;18.00;53.15
69245;BME280;56357;52.304;4.870;2024-01-25T00:48:01;102978.63;;;17.91;52.95
69245;BME280;56357;52.304;4.870;2024-01-25T00:50:28;102972.22;;;17.84;52.72
69245;BME280;56357;52.304;4.870;2024-01-25T00:52:54;102985.94;;;17.92;53.33
69245;BME280;56357;52.304;4.870;2024-01-25T00:55:21;102989.72;;;18.04;53.11
69245;BME280;56357;52.304;4.870;2024-01-25T00:57:48;102992.09;;;18.07;52.98
69245;BME280;56357;52.304;4.870;2024-01-25T01:00:15;103008.56;;;17.97;52.73
69245;BME280;56357;52.304;4.870;2024-01-25T01:02:45;103007.97;;;17.89;52.95
69245;BME280;56357;52.304;4.870;2024-01-25T01:05:12;103009.84;;;17.95;53.35
69245;BME280;56357;52.304;4.870;2024-01-25T01:07:39;103026.69;;;17.95;53.02
69245;BME280;56357;52.304;4.870;2024-01-25T01:10:07;103024.28;;;17.98;52.65
69245;BME280;56357;52.304;4.870;2024-01-25T01:12:34;103024.34;;;17.92;52.31
69245;BME280;56357;52.304;4.870;2024-01-25T01:15:00;103026.28;;;17.91;53.02
69245;BME280;56357;52.304;4.870;2024-01-25T01:17:27;103029.56;;;17.88;52.58
69245;BME280;56357;52.304;4.870;2024-01-25T01:19:54;103022.22;;;17.87;52.19
69245;BME280;56357;52.304;4.870;2024-01-25T01:22:20;103023.13;;;17.81;52.89
69245;BME280;56357;52.304;4.870;2024-01-25T01:24:46;103032.28;;;17.95;52.57
69245;BME280;56357;52.304;4.870;2024-01-25T01:27:13;103032.13;;;17.90;52.36
69245;BME280;56357;52.304;4.870;2024-01-25T01:29:39;103023.94;;;17.88;52.77
69245;BME280;56357;52.304;4.870;2024-01-25T01:32:06;103025.69;;;17.83;52.17
69245;BME280;56357;52.304;4.870;2024-01-25T01:34:32;103023.75;;;17.83;52.40
69245;BME280;56357;52.304;4.870;2024-01-25T01:36:58;103021.44;;;17.74;52.51
69245;BME280;56357;52.304;4.870;2024-01-25T01:39:25;103006.78;;;17.78;52.35
69245;BME280;56357;52.304;4.870;2024-01-25T01:41:51;103014.34;;;17.71;52.50
69245;BME280;56357;52.304;4.870;2024-01-25T01:44:18;103037.84;;;17.77;52.57
69245;BME280;56357;52.304;4.870;2024-01-25T01:46:44;103036.25;;;17.81;52.21
69245;BME280;56357;52.304;4.870;2024-01-25T01:49:12;103032.66;;;17.74;52.67
69245;BME280;56357;52.304;4.870;2024-01-25T01:51:39;103030.06;;;17.79;52.39
69245;BME280;56357;52.304;4.870;2024-01-25T01:54:07;103025.34;;;17.73;52.51
69245;BME280;56357;52.304;4.870;2024-01-25T01:56:34;103030.09;;;17.72;52.57
69245;BME280;56357;52.304;4.870;2024-01-25T01:59:02;103030.13;;;17.66;52.35
69245;BME280;56357;52.304;4.870;2024-01-25T02:01:31;103028.34;;;17.71;52.74
69245;BME280;56357;52.304;4.870;2024-01-25T02:03:57;103037.47;;;17.60;52.65
69245;BME280;56357;52.304;4.870;2024-01-25T02:06:23;103031.38;;;17.70;52.74
69245;BME280;56357;52.304;4.870;2024-01-25T02:08:51;103041.97;;;17.68;52.69
69245;BME280;56357;52.304;4.870;2024-01-25T02:11:18;103024.13;;;17.62;52.45
69245;BME280;56357;52.304;4.870;2024-01-25T02:13:45;103033.16;;;17.64;52.58
69245;BME280;56357;52.304;4.870;2024-01-25T02:16:12;103049.94;;;17.71;52.50
69245;BME280;56357;52.304;4.870;2024-01-25T02:18:41;103045.03;;;17.60;52.42
69245;BME280;56357;52.304;4.870;2024-01-25T02:21:07;103036.03;;;17.51;52.39
69245;BME280;56357;52.304;4.870;2024-01-25T02:23:34;103050.03;;;17.51;52.76
69245;BME280;56357;52.304;4.870;2024-01-25T02:26:00;103046.09;;;17.65;52.30
69245;BME280;56357;52.304;4.870;2024-01-25T02:28:26;103054.78;;;17.51;52.69
69245;BME280;56357;52.304;4.870;2024-01-25T02:30:53;103054.56;;;17.52;52.56
69245;BME280;56357;52.304;4.870;2024-01-25T02:33:20;103063.19;;;17.51;52.20
69245;BME280;56357;52.304;4.870;2024-01-25T02:35:46;103057.97;;;17.61;53.10
69245;BME280;56357;52.304;4.870;2024-01-25T02:38:12;103059.94;;;17.47;53.26
69245;BME280;56357;52.304;4.870;2024-01-25T02:40:39;103056.28;;;17.47;52.70
69245;BME280;56357;52.304;4.870;2024-01-25T02:43:05;103059.94;;;17.47;53.04
69245;BME280;56357;52.304;4.870;2024-01-25T02:45:32;103067.59;;;17.71;52.83
69245;BME280;56357;52.304;4.870;2024-01-25T02:47:58;103070.28;;;17.53;52.52
69245;BME280;56357;52.304;4.870;2024-01-25T02:50:27;103068.94;;;17.62;52.21
69245;BME280;56357;52.304;4.870;2024-01-25T02:52:53;103073.19;;;17.71;52.43
69245;BME280;56357;52.304;4.870;2024-01-25T02:55:20;103066.38;;;17.61;52.75
69245;BME280;56357;52.304;4.870;2024-01-25T02:57:46;103070.25;;;17.60;52.37
69245;BME280;56357;52.304;4.870;2024-01-25T03:00:13;103071.53;;;17.95;52.25
69245;BME280;56357;52.304;4.870;2024-01-25T03:02:39;103065.84;;;17.77;52.41
69245;BME280;56357;52.304;4.870;2024-01-25T03:05:06;103066.53;;;17.72;52.46
69245;BME280;56357;52.304;4.870;2024-01-25T03:07:32;103060.91;;;17.72;52.42
69245;BME280;56357;52.304;4.870;2024-01-25T03:09:58;103062.09;;;17.89;52.13
69245;BME280;56357;52.304;4.870;2024-01-25T03:12:25;103071.22;;;17.78;52.75
69245;BME280;56357;52.304;4.870;2024-01-25T03:14:51;103072.53;;;17.76;52.45
69245;BME280;56357;52.304;4.870;2024-01-25T03:17:17;103068.94;;;17.62;52.87
69245;BME280;56357;52.304;4.870;2024-01-25T03:19:44;103074.19;;;17.83;52.83
69245;BME280;56357;52.304;4.870;2024-01-25T03:22:10;103071.50;;;17.70;52.54
69245;BME280;56357;52.304;4.870;2024-01-25T03:24:37;103071.91;;;17.74;52.67
69245;BME280;56357;52.304;4.870;2024-01-25T03:27:04;103067.72;;;17.83;52.57
69245;BME280;56357;52.304;4.870;2024-01-25T03:29:30;103073.97;;;17.85;52.80
69245;BME280;56357;52.304;4.870;2024-01-25T03:31:57;103077.47;;;17.80;52.12
69245;BME280;56357;52.304;4.870;2024-01-25T03:34:24;103072.84;;;17.92;52.52
69245;BME280;56357;52.304;4.870;2024-01-25T03:36:50;103079.09;;;17.94;52.43
69245;BME280;56357;52.304;4.870;2024-01-25T03:39:18;103079.94;;;17.95;52.04
69245;BME280;56357;52.304;4.870;2024-01-25T03:41:45;103081.63;;;18.02;52.23
69245;BME280;56357;52.304;4.870;2024-01-25T03:44:11;103071.94;;;17.98;52.27
69245;BME280;56357;52.304;4.870;2024-01-25T03:46:37;103079.22;;;18.06;52.45
69245;BME280;56357;52.304;4.870;2024-01-25T03:49:04;103061.81;;;17.97;52.29
69245;BME280;56357;52.304;4.870;2024-01-25T03:51:30;103073.06;;;17.91;52.08
69245;BME280;56357;52.304;4.870;2024-01-25T03:53:56;103073.34;;;18.14;51.62
69245;BME280;56357;52.304;4.870;2024-01-25T03:56:23;103077.22;;;17.88;52.19
69245;BME280;56357;52.304;4.870;2024-01-25T03:58:52;103074.72;;;18.05;52.16
69245;BME280;56357;52.304;4.870;2024-01-25T04:01:18;103079.19;;;18.37;51.36
69245;BME280;56357;52.304;4.870;2024-01-25T04:03:44;103069.47;;;18.15;51.77
69245;BME280;56357;52.304;4.870;2024-01-25T04:06:11;103068.09;;;18.24;51.68
69245;BME280;56357;52.304;4.870;2024-01-25T04:08:37;103064.81;;;18.27;51.04
69245;BME280;56357;52.304;4.870;2024-01-25T04:11:04;103069.84;;;18.18;51.67
69245;BME280;56357;52.304;4.870;2024-01-25T04:13:30;103062.59;;;18.11;51.63
69245;BME280;56357;52.304;4.870;2024-01-25T04:15:56;103054.69;;;18.26;50.92
69245;BME280;56357;52.304;4.870;2024-01-25T04:18:23;103048.84;;;18.27;51.09
69245;BME280;56357;52.304;4.870;2024-01-25T04:20:49;103053.72;;;18.14;51.69
69245;BME280;56357;52.304;4.870;2024-01-25T04:23:16;103054.16;;;18.42;50.51
69245;BME280;56357;52.304;4.870;2024-01-25T04:25:42;103059.25;;;18.52;51.12
69245;BME280;56357;52.304;4.870;2024-01-25T04:28:09;103058.44;;;18.45;51.11
69245;BME280;56357;52.304;4.870;2024-01-25T04:30:35;103061.91;;;18.40;50.85
69245;BME280;56357;52.304;4.870;2024-01-25T04:33:02;103057.13;;;18.16;51.46
69245;BME280;56357;52.304;4.870;2024-01-25T04:35:28;103067.19;;;18.30;51.67
69245;BME280;56357;52.304;4.870;2024-01-25T04:37:56;103066.41;;;18.16;51.52
69245;BME280;56357;52.304;4.870;2024-01-25T04:40:23;103073.97;;;18.41;51.16
69245;BME280;56357;52.304;4.870;2024-01-25T04:42:49;103072.97;;;18.60;50.83
69245;BME280;56357;52.304;4.870;2024-01-25T04:45:15;103073.47;;;18.25;51.59
69245;BME280;56357;52.304;4.870;2024-01-25T04:47:42;103079.56;;;18.47;50.71
69245;BME280;56357;52.304;4.870;2024-01-25T04:50:08;103077.41;;;18.18;51.97
69245;BME280;56357;52.304;4.870;2024-01-25T04:52:35;103074.25;;;18.08;52.34
69245;BME280;56357;52.304;4.870;2024-01-25T04:55:01;103072.00;;;18.23;51.81
69245;BME280;56357;52.304;4.870;2024-01-25T04:57:27;103082.00;;;18.37;51.09
69245;BME280;56357;52.304;4.870;2024-01-25T04:59:54;103085.56;;;18.51;50.63
69245;BME280;56357;52.304;4.870;2024-01-25T05:02:20;103085.66;;;18.44;50.99
69245;BME280;56357;52.304;4.870;2024-01-25T05:04:47;103082.50;;;18.27;50.68
69245;BME280;56357;52.304;4.870;2024-01-25T05:07:13;103086.56;;;18.32;51.15
69245;BME280;56357;52.304;4.870;2024-01-25T05:09:40;103087.34;;;18.45;51.01
69245;BME280;56357;52.304;4.870;2024-01-25T05:12:06;103074.06;;;18.34;51.05
69245;BME280;56357;52.304;4.870;2024-01-25T05:14:32;103078.28;;;18.18;51.46
69245;BME280;56357;52.304;4.870;2024-01-25T05:16:59;103079.19;;;18.12;51.91
69245;BME280;56357;52.304;4.870;2024-01-25T05:19:25;103089.38;;;18.32;51.93
69245;BME280;56357;52.304;4.870;2024-01-25T05:21:51;103093.88;;;18.64;50.69
69245;BME280;56357;52.304;4.870;2024-01-25T05:24:18;103105.69;;;18.16;51.69
69245;BME280;56357;52.304;4.870;2024-01-25T05:26:44;103097.94;;;18.43;51.84
69245;BME280;56357;52.304;4.870;2024-01-25T05:29:10;103105.16;;;19.00;50.26
69245;BME280;56357;52.304;4.870;2024-01-25T05:31:37;103103.59;;;19.04;50.17
69245;BME280;56357;52.304;4.870;2024-01-25T05:34:03;103105.72;;;19.08;49.71
69245;BME280;56357;52.304;4.870;2024-01-25T05:36:30;103118.66;;;19.09;50.15
69245;BME280;56357;52.304;4.870;2024-01-25T05:38:56;103122.41;;;19.22;49.78
69245;BME280;56357;52.304;4.870;2024-01-25T05:41:23;103109.22;;;19.22;49.79
69245;BME280;56357;52.304;4.870;2024-01-25T05:43:49;103098.00;;;19.22;49.93
69245;BME280;56357;52.304;4.870;2024-01-25T05:46:15;103097.13;;;19.22;49.78
69245;BME280;56357;52.304;4.870;2024-01-25T05:48:42;103097.31;;;19.27;49.75
69245;BME280;56357;52.304;4.870;2024-01-25T05:51:08;103097.25;;;19.33;49.55
69245;BME280;56357;52.304;4.870;2024-01-25T05:53:36;103107.41;;;19.34;49.25
69245;BME280;56357;52.304;4.870;2024-01-25T05:56:03;103106.28;;;19.35;49.52
69245;BME280;56357;52.304;4.870;2024-01-25T05:58:30;103105.16;;;18.82;50.29
69245;BME280;56357;52.304;4.870;2024-01-25T06:00:56;103103.56;;;18.37;51.51
69245;BME280;56357;52.304;4.870;2024-01-25T06:03:22;103102.50;;;18.44;52.06
69245;BME280;56357;52.304;4.870;2024-01-25T06:05:49;103105.09;;;18.64;51.29
69245;BME280;56357;52.304;4.870;2024-01-25T06:08:16;103115.75;;;18.80;51.31
69245;BME280;56357;52.304;4.870;2024-01-25T06:10:42;103115.47;;;18.88;51.22
69245;BME280;56357;52.304;4.870;2024-01-25T06:13:09;103120.44;;;19.04;50.58
69245;BME280;56357;52.304;4.870;2024-01-25T06:15:35;103118.88;;;18.41;51.37
69245;BME280;56357;52.304;4.870;2024-01-25T06:18:02;103117.72;;;18.55;51.27
69245;BME280;56357;52.304;4.870;2024-01-25T06:20:28;103117.94;;;18.22;51.89
69245;BME280;56357;52.304;4.870;2024-01-25T06:22:55;103122.53;;;18.41;51.53
69245;BME280;56357;52.304;4.870;2024-01-25T06:25:21;103125.03;;;18.80;51.35
69245;BME280;56357;52.304;4.870;2024-01-25T06:27:48;103109.88;;;19.24;50.45
69245;BME280;56357;52.304;4.870;2024-01-25T06:30:14;103131.63;;;18.68;51.35
69245;BME280;56357;52.304;4.870;2024-01-25T06:32:41;103125.44;;;18.84;51.76
69245;BME280;56357;52.304;4.870;2024-01-25T06:35:07;103126.59;;;18.94;51.06
69245;BME280;56357;52.304;4.870;2024-01-25T06:37:34;103123.81;;;18.70;52.31
69245;BME280;56357;52.304;4.870;2024-01-25T06:40:01;103118.22;;;18.70;52.42
69245;BME280;56357;52.304;4.870;2024-01-25T06:42:27;103124.03;;;18.93;51.48
69245;BME280;56357;52.304;4.870;2024-01-25T06:44:54;103123.47;;;18.60;52.82
69245;BME280;56357;52.304;4.870;2024-01-25T06:47:20;103127.22;;;18.54;52.63
69245;BME280;56357;52.304;4.870;2024-01-25T06:49:47;103120.78;;;18.71;53.16
69245;BME280;56357;52.304;4.870;2024-01-25T06:52:17;103119.03;;;18.77;51.58
69245;BME280;56357;52.304;4.870;2024-01-25T06:54:44;103130.03;;;18.78;52.32
69245;BME280;56357;52.304;4.870;2024-01-25T06:57:10;103126.78;;;18.99;52.82
69245;BME280;56357;52.304;4.870;2024-01-25T06:59:36;103115.00;;;19.09;52.76
69245;BME280;56357;52.304;4.870;2024-01-25T07:02:03;103110.66;;;19.49;52.00
69245;BME280;56357;52.304;4.870;2024-01-25T07:04:29;103110.56;;;19.56;51.93
69245;BME280;56357;52.304;4.870;2024-01-25T07:06:56;103109.38;;;19.63;51.82
69245;BME280;56357;52.304;4.870;2024-01-25T07:09:23;103095.44;;;19.39;52.91
69245;BME280;56357;52.304;4.870;2024-01-25T07:11:50;103104.50;;;19.59;51.81
69245;BME280;56357;52.304;4.870;2024-01-25T07:14:16;103112.81;;;19.65;51.99
69245;BME280;56357;52.304;4.870;2024-01-25T07:16:43;103104.31;;;19.17;52.98
69245;BME280;56357;52.304;4.870;2024-01-25T07:19:09;103114.47;;;19.18;52.88
69245;BME280;56357;52.304;4.870;2024-01-25T07:21:36;103121.66;;;18.72;54.48
69245;BME280;56357;52.304;4.870;2024-01-25T07:24:03;103114.00;;;18.79;53.82
69245;BME280;56357;52.304;4.870;2024-01-25T07:26:30;103117.97;;;18.96;53.50
69245;BME280;56357;52.304;4.870;2024-01-25T07:28:56;103108.19;;;18.80;53.38
69245;BME280;56357;52.304;4.870;2024-01-25T07:31:26;103103.94;;;18.71;53.95
69245;BME280;56357;52.304;4.870;2024-01-25T07:33:53;103112.19;;;18.66;54.22
69245;BME280;56357;52.304;4.870;2024-01-25T07:36:20;103114.38;;;18.64;53.76
69245;BME280;56357;52.304;4.870;2024-01-25T07:38:46;103122.56;;;18.66;54.25
69245;BME280;56357;52.304;4.870;2024-01-25T07:41:16;103116.94;;;18.66;54.22
69245;BME280;56357;52.304;4.870;2024-01-25T07:43:43;103133.50;;;18.49;53.95
69245;BME280;56357;52.304;4.870;2024-01-25T07:46:09;103134.53;;;18.55;54.12
69245;BME280;56357;52.304;4.870;2024-01-25T07:48:36;103132.00;;;18.71;53.99
69245;BME280;56357;52.304;4.870;2024-01-25T07:51:02;103143.56;;;18.63;54.40
69245;BME280;56357;52.304;4.870;2024-01-25T07:53:29;103136.94;;;18.51;53.46
69245;BME280;56357;52.304;4.870;2024-01-25T07:55:55;103137.69;;;18.65;54.17
69245;BME280;56357;52.304;4.870;2024-01-25T07:58:21;103135.97;;;18.64;53.78
69245;BME280;56357;52.304;4.870;2024-01-25T08:00:48;103139.16;;;18.43;54.31
69245;BME280;56357;52.304;4.870;2024-01-25T08:03:14;103136.78;;;18.71;53.38
69245;BME280;56357;52.304;4.870;2024-01-25T08:05:41;103128.81;;;18.43;54.11
69245;BME280;56357;52.304;4.870;2024-01-25T08:08:08;103137.00;;;18.69;53.79
69245;BME280;56357;52.304;4.870;2024-01-25T08:10:35;103133.94;;;18.95;52.43
69245;BME280;56357;52.304;4.870;2024-01-25T08:13:01;103144.09;;;18.47;53.84
69245;BME280;56357;52.304;4.870;2024-01-25T08:15:28;103139.47;;;18.84;53.13
69245;BME280;56357;52.304;4.870;2024-01-25T08:17:54;103136.91;;;18.82;53.24
69245;BME280;56357;52.304;4.870;2024-01-25T08:20:21;103138.34;;;18.85;52.82
69245;BME280;56357;52.304;4.870;2024-01-25T08:22:47;103137.13;;;18.56;53.77
69245;BME280;56357;52.304;4.870;2024-01-25T08:25:13;103142.41;;;18.71;53.50
69245;BME280;56357;52.304;4.870;2024-01-25T08:27:41;103141.53;;;18.46;53.92
69245;BME280;56357;52.304;4.870;2024-01-25T08:30:08;103129.91;;;18.42;54.37
69245;BME280;56357;52.304;4.870;2024-01-25T08:32:34;103130.25;;;18.52;54.42
69245;BME280;56357;52.304;4.870;2024-01-25T08:35:01;103121.72;;;18.65;53.63
69245;BME280;56357;52.304;4.870;2024-01-25T08:37:30;103114.50;;;18.76;52.78
69245;BME280;56357;52.304;4.870;2024-01-25T08:39:56;103116.22;;;18.77;53.40
69245;BME280;56357;52.304;4.870;2024-01-25T08:42:22;103116.63;;;18.80;53.46
69245;BME280;56357;52.304;4.870;2024-01-25T08:44:49;103121.09;;;18.63;53.45
69245;BME280;56357;52.304;4.870;2024-01-25T08:47:17;103128.00;;;18.85;52.57
69245;BME280;56357;52.304;4.870;2024-01-25T08:49:43;103132.00;;;18.96;52.73
69245;BME280;56357;52.304;4.870;2024-01-25T08:52:10;103145.97;;;19.02;52.81
69245;BME280;56357;52.304;4.870;2024-01-25T08:54:37;103142.28;;;18.84;52.66
69245;BME280;56357;52.304;4.870;2024-01-25T08:57:04;103145.13;;;18.77;52.62
69245;BME280;56357;52.304;4.870;2024-01-25T08:59:32;103139.22;;;18.85;52.62
69245;BME280;56357;52.304;4.870;2024-01-25T09:02:00;103137.91;;;18.88;52.68
69245;BME280;56357;52.304;4.870;2024-01-25T09:04:26;103135.41;;;18.80;53.08
69245;BME280;56357;52.304;4.870;2024-01-25T09:06:53;103132.22;;;18.94;52.40
69245;BME280;56357;52.304;4.870;2024-01-25T09:09:19;103130.41;;;18.82;52.09
69245;BME280;56357;52.304;4.870;2024-01-25T09:11:45;103128.88;;;18.61;53.14
69245;BME280;56357;52.304;4.870;2024-01-25T09:14:12;103128.56;;;18.45;52.92
69245;BME280;56357;52.304;4.870;2024-01-25T09:16:38;103131.78;;;18.97;52.34
69245;BME280;56357;52.304;4.870;2024-01-25T09:19:04;103132.81;;;18.78;52.40
69245;BME280;56357;52.304;4.870;2024-01-25T09:21:31;103130.53;;;18.69;52.59
69245;BME280;56357;52.304;4.870;2024-01-25T09:23:57;103127.66;;;18.75;52.51
69245;BME280;56357;52.304;4.870;2024-01-25T09:26:24;103126.50;;;18.83;52.01
69245;BME280;56357;52.304;4.870;2024-01-25T09:28:51;103124.06;;;19.11;51.56
69245;BME280;56357;52.304;4.870;2024-01-25T09:31:17;103125.09;;;19.53;50.53
69245;BME280;56357;52.304;4.870;2024-01-25T09:33:44;103127.69;;;18.93;51.69
69245;BME280;56357;52.304;4.870;2024-01-25T09:36:10;103119.81;;;18.84;52.15
69245;BME280;56357;52.304;4.870;2024-01-25T09:38:36;103113.28;;;19.08;51.58
69245;BME280;56357;52.304;4.870;2024-01-25T09:41:03;103114.28;;;19.13;51.35
69245;BME280;56357;52.304;4.870;2024-01-25T09:43:30;103116.28;;;18.88;51.37
69245;BME280;56357;52.304;4.870;2024-01-25T09:45:56;103109.78;;;19.12;51.27
69245;BME280;56357;52.304;4.870;2024-01-25T09:48:23;103114.03;;;19.40;50.55
69245;BME280;56357;52.304;4.870;2024-01-25T09:50:49;103114.44;;;19.00;50.66
69245;BME280;56357;52.304;4.870;2024-01-25T09:53:21;103114.84;;;19.04;51.28
69245;BME280;56357;52.304;4.870;2024-01-25T09:56:03;103105.03;;;19.13;50.93
69245;BME280;56357;52.304;4.870;2024-01-25T09:58:42;103100.88;;;19.15;50.86
69245;BME280;56357;52.304;4.870;2024-01-25T10:01:12;103112.19;;;19.27;50.93
69245;BME280;56357;52.304;4.870;2024-01-25T10:03:41;103118.22;;;19.12;50.99
69245;BME280;56357;52.304;4.870;2024-01-25T10:06:08;103118.97;;;19.19;50.57
69245;BME280;56357;52.304;4.870;2024-01-25T10:08:34;103110.22;;;19.34;50.31
69245;BME280;56357;52.304;4.870;2024-01-25T10:11:02;103107.50;;;19.21;50.22
69245;BME280;56357;52.304;4.870;2024-01-25T10:13:29;103096.88;;;19.23;50.68
69245;BME280;56357;52.304;4.870;2024-01-25T10:15:56;103104.88;;;19.26;50.60
69245;BME280;56357;52.304;4.870;2024-01-25T10:18:22;103110.41;;;19.14;50.40
69245;BME280;56357;52.304;4.870;2024-01-25T10:20:49;103101.56;;;19.29;50.72
69245;BME280;56357;52.304;4.870;2024-01-25T10:23:15;103109.09;;;19.17;50.56
69245;BME280;56357;52.304;4.870;2024-01-25T10:25:42;103099.88;;;19.10;50.93
69245;BME280;56357;52.304;4.870;2024-01-25T10:28:08;103110.78;;;19.00;51.22
69245;BME280;56357;52.304;4.870;2024-01-25T10:30:35;103100.34;;;19.07;50.59
69245;BME280;56357;52.304;4.870;2024-01-25T10:33:02;103097.84;;;18.99;50.80
69245;BME280;56357;52.304;4.870;2024-01-25T10:35:30;103120.69;;;19.02;50.10
69245;BME280;56357;52.304;4.870;2024-01-25T10:37:57;103133.72;;;18.97;50.11
69245;BME280;56357;52.304;4.870;2024-01-25T10:40:24;103123.13;;;19.17;50.18
69245;BME280;56357;52.304;4.870;2024-01-25T10:42:50;103115.00;;;19.27;50.08
69245;BME280;56357;52.304;4.870;2024-01-25T10:45:17;103116.03;;;19.14;49.79
69245;BME280;56357;52.304;4.870;2024-01-25T10:47:48;103105.44;;;19.35;49.92
69245;BME280;56357;52.304;4.870;2024-01-25T10:50:14;103102.69;;;19.28;49.84
69245;BME280;56357;52.304;4.870;2024-01-25T10:52:41;103101.06;;;19.39;49.96
69245;BME280;56357;52.304;4.870;2024-01-25T10:55:08;103087.38;;;19.06;50.13
69245;BME280;56357;52.304;4.870;2024-01-25T10:57:39;103083.78;;;18.99;50.89
69245;BME280;56357;52.304;4.870;2024-01-25T11:00:07;103074.28;;;19.18;50.69
69245;BME280;56357;52.304;4.870;2024-01-25T11:02:36;103090.31;;;19.36;50.41
69245;BME280;56357;52.304;4.870;2024-01-25T11:05:15;103097.88;;;19.35;50.12
69245;BME280;56357;52.304;4.870;2024-01-25T11:07:45;103107.22;;;19.11;50.61
69245;BME280;56357;52.304;4.870;2024-01-25T11:10:20;103106.34;;;19.10;50.53
69245;BME280;56357;52.304;4.870;2024-01-25T11:12:57;103081.84;;;19.17;50.03
69245;BME280;56357;52.304;4.870;2024-01-25T11:15:32;103058.66;;;19.04;50.02
69245;BME280;56357;52.304;4.870;2024-01-25T11:18:00;103057.41;;;19.00;50.82
69245;BME280;56357;52.304;4.870;2024-01-25T11:20:28;103064.44;;;19.27;49.67
69245;BME280;56357;52.304;4.870;2024-01-25T11:23:06;103065.06;;;19.47;50.33
69245;BME280;56357;52.304;4.870;2024-01-25T11:25:36;103062.16;;;19.54;50.20
69245;BME280;56357;52.304;4.870;2024-01-25T11:28:04;103047.53;;;19.63;49.88
69245;BME280;56357;52.304;4.870;2024-01-25T11:30:34;103041.28;;;19.50;50.02
69245;BME280;56357;52.304;4.870;2024-01-25T11:33:04;103053.91;;;19.41;50.56
69245;BME280;56357;52.304;4.870;2024-01-25T11:35:31;103049.19;;;19.71;49.53
69245;BME280;56357;52.304;4.870;2024-01-25T11:37:57;103037.41;;;19.62;49.93
69245;BME280;56357;52.304;4.870;2024-01-25T11:40:25;103023.97;;;20.05;49.08
69245;BME280;56357;52.304;4.870;2024-01-25T11:42:53;103028.91;;;20.22;48.65
69245;BME280;56357;52.304;4.870;2024-01-25T11:45:19;103014.59;;;20.23;48.74
69245;BME280;56357;52.304;4.870;2024-01-25T11:47:46;103012.44;;;19.95;49.34
69245;BME280;56357;52.304;4.870;2024-01-25T11:50:13;103008.69;;;20.13;49.06
69245;BME280;56357;52.304;4.870;2024-01-25T11:52:39;103009.69;;;19.77;49.96
69245;BME280;56357;52.304;4.870;2024-01-25T11:55:09;102999.81;;;19.86;49.90
69245;BME280;56357;52.304;4.870;2024-01-25T11:57:40;102994.88;;;19.59;50.21
69245;BME280;56357;52.304;4.870;2024-01-25T12:00:08;102985.97;;;19.32;50.87
69245;BME280;56357;52.304;4.870;2024-01-25T12:02:36;102991.63;;;19.44;50.99
69245;BME280;56357;52.304;4.870;2024-01-25T12:05:04;102990.44;;;19.51;50.80
69245;BME280;56357;52.304;4.870;2024-01-25T12:07:31;102996.19;;;19.56;51.02
69245;BME280;56357;52.304;4.870;2024-01-25T12:09:59;102976.34;;;19.81;50.18
69245;BME280;56357;52.304;4.870;2024-01-25T12:12:27;102978.69;;;19.54;50.83
69245;BME280;56357;52.304;4.870;2024-01-25T12:15:00;102970.84;;;19.86;50.17
69245;BME280;56357;52.304;4.870;2024-01-25T12:17:29;102959.03;;;19.54;50.86
69245;BME280;56357;52.304;4.870;2024-01-25T12:19:59;102957.94;;;19.55;51.11
69245;BME280;56357;52.304;4.870;2024-01-25T12:22:29;102961.13;;;19.59;51.30
69245;BME280;56357;52.304;4.870;2024-01-25T12:24:57;102953.31;;;19.61;51.20
69245;BME280;56357;52.304;4.870;2024-01-25T12:27:24;102938.38;;;19.49;51.43
69245;BME280;56357;52.304;4.870;2024-01-25T12:29:52;102941.22;;;19.60;51.10
69245;BME280;56357;52.304;4.870;2024-01-25T12:32:22;102941.81;;;19.62;51.23
69245;BME280;56357;52.304;4.870;2024-01-25T12:34:53;102925.94;;;19.68;51.13
69245;BME280;56357;52.304;4.870;2024-01-25T12:37:19;102927.84;;;19.44;51.47
69245;BME280;56357;52.304;4.870;2024-01-25T12:39:46;102924.22;;;19.55;51.19
69245;BME280;56357;52.304;4.870;2024-01-25T12:42:13;102918.22;;;19.52;51.42
69245;BME280;56357;52.304;4.870;2024-01-25T12:44:39;102918.22;;;19.63;51.44
69245;BME280;56357;52.304;4.870;2024-01-25T12:47:06;102918.34;;;19.57;51.36
69245;BME280;56357;52.304;4.870;2024-01-25T12:49:33;102915.03;;;19.60;51.47